Airfield :
LOGIN :

Register | Disclaimer

   EN    FR    IT 

 










Legend :    VFR   Marginal VFR   IFR   Intensive IFR   Very Intensive IFR
Visi :
Ceiling :
>= 8 km
>= 3000ft
5 to 8 km
1000 to 3000 ft
1500m to 5 km
500 to 1000 ft
800 to 1500m
200 to 500 ft
< 800m
< 200 ft
Symbols :   Thunderstorms  Fog  Heavy snow  Heavy precipitations  Wind > 20 kt
SIGMETs :     Misc.  Thunderstorms  Icing  Turbulence  Mountain Waves  Volcanic Ashes






- Airport Elevation : 600 ft
- IATA code : VIE


LOWW - Vienna Schwechat

CURRENT METAR :
  • 192150Z 11005KT CAVOK 14/07 Q1020 NOSIG

EXPIRED METARs :
  • 192120Z 11005KT CAVOK 15/07 Q1020 NOSIG
  • 192050Z 11006KT CAVOK 15/06 Q1020 NOSIG
  • 192020Z 10006KT CAVOK 15/06 Q1020 NOSIG
  • 191950Z 10005KT CAVOK 14/06 Q1020 NOSIG

TAF TAF LOWW
Valid from the 19 at 21:00 until the 21 at 03:00 UTC


192015Z 1921/2103 12006KT CAVOK TX21/2014Z TN10/2004Z
BECMG 2006/2008 14012KT
BECMG 2016/2018 12005KT



MET'MAP, your aeronautical weather chart ! - Copyright ORBIFLY December 2007 - Disclaimer

ORBIFLY MET'MAP TEAM :

Programming & Development : Alexandra Zaïnal
Concept & original design : Baudouin d'Aumeries
Assistance for programming : Marc-Olivier Méhu
Technical & hardware support : Manuel Goepfert

Contact : metmap@orbifly.com




SOURCES & CREDITS :

   NOAA